Time;durP1;ratioP1;P1;durP2;ratioP2;P2;SDS_P1;SDS_P2;PMS_P1;PMS_P2;Temp;Humidity;BMP_temperature;BMP_pressure;BME280_temperature;BME280_humidity;BME280_pressure;Samples;Min_cycle;Max_cycle;Signal;HPM_P1;HPM_P2
2022/04/19 00:00:16;;;;;;;1.43;1.17;;;10.20;79.60;;;;;;5047218;28;20478;-74
2022/04/19 00:02:43;;;;;;;1.43;1.20;;;10.20;79.90;;;;;;5045632;28;20490;-75
2022/04/19 00:05:10;;;;;;;1.47;1.20;;;10.10;80.50;;;;;;5048960;28;20476;-74
2022/04/19 00:07:38;;;;;;;1.50;1.17;;;10.10;80.50;;;;;;5047436;28;20465;-75
2022/04/19 00:10:06;;;;;;;1.40;1.10;;;10.10;80.60;;;;;;5047841;28;20990;-74
2022/04/19 00:12:33;;;;;;;1.47;1.20;;;10.00;80.20;;;;;;5047281;28;20486;-75
2022/04/19 00:15:01;;;;;;;1.40;1.10;;;10.00;80.10;;;;;;5046923;28;20458;-75
2022/04/19 00:17:28;;;;;;;1.43;1.20;;;10.00;80.00;;;;;;5048514;28;20466;-74
2022/04/19 00:19:55;;;;;;;1.47;1.17;;;10.00;79.90;;;;;;5042484;28;20491;-74
2022/04/19 00:22:22;;;;;;;1.47;1.10;;;10.00;79.40;;;;;;5032946;28;20473;-74
2022/04/19 00:24:49;;;;;;;1.40;1.10;;;10.00;79.70;;;;;;5039172;28;20462;-75
2022/04/19 00:27:16;;;;;;;1.40;1.10;;;10.00;79.60;;;;;;5040221;28;20492;-75
2022/04/19 00:29:43;;;;;;;1.50;1.10;;;10.00;79.50;;;;;;5043337;28;20577;-74
2022/04/19 00:32:11;;;;;;;1.40;1.10;;;9.90;79.80;;;;;;5045238;28;20492;-74
2022/04/19 00:34:38;;;;;;;1.50;1.10;;;9.90;79.90;;;;;;5048516;28;21253;-75
2022/04/19 00:37:05;;;;;;;1.47;1.20;;;9.90;80.50;;;;;;5047409;28;20463;-74
2022/04/19 00:39:32;;;;;;;1.50;1.20;;;9.90;80.90;;;;;;5045558;28;20880;-75
2022/04/19 00:41:59;;;;;;;1.40;1.20;;;9.90;81.10;;;;;;5046261;28;20458;-75
2022/04/19 00:44:26;;;;;;;1.47;1.10;;;9.90;80.90;;;;;;5048245;28;20469;-74
2022/04/19 00:46:53;;;;;;;1.47;1.10;;;9.80;80.80;;;;;;5048127;28;20868;-74
2022/04/19 00:49:21;;;;;;;1.47;1.10;;;9.80;80.90;;;;;;5045697;28;21028;-75
2022/04/19 00:51:48;;;;;;;1.47;1.10;;;9.80;81.90;;;;;;5035857;28;20487;-74
2022/04/19 00:54:17;;;;;;;1.47;1.10;;;9.80;82.60;;;;;;5045101;28;20494;-74
2022/04/19 00:56:44;;;;;;;1.47;1.10;;;9.70;82.70;;;;;;5035093;28;20455;-74
2022/04/19 00:59:12;;;;;;;1.40;1.10;;;9.70;81.50;;;;;;5040430;28;20466;-74
2022/04/19 01:01:39;;;;;;;1.47;1.10;;;9.70;80.90;;;;;;5036401;28;20468;-75
2022/04/19 01:04:06;;;;;;;1.50;1.20;;;9.60;80.80;;;;;;5038713;28;20482;-74
2022/04/19 01:06:34;;;;;;;1.47;1.23;;;9.60;81.10;;;;;;5045714;28;20815;-74
2022/04/19 01:09:01;;;;;;;1.43;1.10;;;9.50;82.60;;;;;;5042182;28;20467;-76
2022/04/19 01:14:13;;;;;;;1.47;1.10;;;9.50;83.00;;;;;;5037460;28;20974;-74
2022/04/19 01:16:41;;;;;;;1.47;1.20;;;9.50;83.00;;;;;;5051239;28;20485;-74
2022/04/19 01:19:15;;;;;;;1.47;1.10;;;9.40;83.90;;;;;;5047813;28;20509;-74
2022/04/19 01:21:46;;;;;;;1.50;1.20;;;9.40;84.60;;;;;;5038176;28;20468;-75
2022/04/19 01:24:18;;;;;;;1.50;1.20;;;9.30;84.50;;;;;;5046889;28;20470;-74
2022/04/19 01:26:45;;;;;;;1.47;1.20;;;9.30;85.00;;;;;;5050870;28;20459;-74
2022/04/19 01:29:13;;;;;;;1.43;1.10;;;9.20;85.10;;;;;;5048360;28;20468;-74
2022/04/19 01:31:41;;;;;;;1.47;1.20;;;9.20;84.70;;;;;;5054366;22;20498;-75
2022/04/19 01:34:08;;;;;;;1.50;1.20;;;9.20;85.30;;;;;;5031143;28;20981;-74
2022/04/19 01:36:35;;;;;;;1.50;1.20;;;9.10;85.90;;;;;;5033686;28;20470;-75
2022/04/19 01:39:04;;;;;;;1.43;1.20;;;9.10;85.80;;;;;;5051994;28;20470;-75
2022/04/19 01:41:31;;;;;;;1.47;1.20;;;9.10;85.30;;;;;;5031286;28;20486;-75
2022/04/19 01:43:58;;;;;;;1.40;1.10;;;9.10;85.60;;;;;;5050777;28;20474;-76
2022/04/19 01:46:26;;;;;;;1.50;1.20;;;9.00;86.10;;;;;;5039926;28;20554;-75
2022/04/19 01:48:54;;;;;;;1.47;1.13;;;9.00;86.60;;;;;;5035037;28;20466;-76
2022/04/19 01:51:22;;;;;;;1.47;1.20;;;9.00;87.10;;;;;;5016546;28;20497;-74
2022/04/19 01:53:50;;;;;;;1.50;1.20;;;8.90;87.10;;;;;;5027168;28;21036;-73
2022/04/19 01:56:18;;;;;;;1.50;1.20;;;8.90;88.00;;;;;;5032628;28;20463;-73
2022/04/19 01:58:46;;;;;;;1.40;1.17;;;8.90;88.20;;;;;;5050043;28;20470;-75
2022/04/19 02:01:13;;;;;;;1.50;1.20;;;8.90;87.70;;;;;;5025813;28;20483;-74
2022/04/19 02:03:39;;;;;;;1.50;1.20;;;8.90;88.10;;;;;;5046809;28;20910;-74
2022/04/19 02:06:09;;;;;;;1.50;1.20;;;8.80;87.80;;;;;;5047842;28;20466;-74
2022/04/19 02:08:36;;;;;;;1.47;1.10;;;8.80;87.90;;;;;;5030229;28;20502;-75
2022/04/19 02:11:02;;;;;;;1.50;1.20;;;8.80;88.70;;;;;;5028867;28;21109;-74
2022/04/19 02:13:31;;;;;;;1.43;1.20;;;8.80;88.40;;;;;;5027387;28;20466;-73
2022/04/19 02:15:58;;;;;;;1.43;1.20;;;8.80;87.70;;;;;;5021693;28;20456;-74
2022/04/19 02:18:25;;;;;;;1.40;1.20;;;8.70;87.90;;;;;;5024144;28;20525;-73
2022/04/19 02:20:54;;;;;;;1.50;1.30;;;8.70;87.70;;;;;;5024128;28;20494;-76
2022/04/19 02:23:20;;;;;;;1.47;1.20;;;8.70;88.20;;;;;;5040378;28;21010;-76
2022/04/19 02:25:52;;;;;;;1.50;1.20;;;8.70;88.20;;;;;;5031564;28;20478;-77
2022/04/19 02:28:21;;;;;;;1.43;1.17;;;8.70;89.10;;;;;;5028068;28;20518;-76
2022/04/19 02:30:49;;;;;;;1.50;1.20;;;8.60;88.60;;;;;;5033565;28;20600;-76
2022/04/19 02:33:16;;;;;;;1.50;1.30;;;8.60;88.80;;;;;;5028619;28;20486;-76
2022/04/19 02:35:43;;;;;;;1.47;1.20;;;8.60;88.40;;;;;;5030172;28;20469;-76
2022/04/19 02:38:10;;;;;;;1.40;1.10;;;8.50;89.20;;;;;;5036246;28;20454;-76
2022/04/19 02:40:37;;;;;;;1.47;1.20;;;8.50;89.40;;;;;;5028184;28;20889;-76
2022/04/19 02:43:04;;;;;;;1.50;1.30;;;8.50;89.40;;;;;;5046543;28;20463;-77
2022/04/19 02:45:31;;;;;;;1.50;1.20;;;8.50;88.80;;;;;;5041812;28;20471;-76
2022/04/19 02:48:05;;;;;;;1.43;1.20;;;8.50;88.50;;;;;;5026271;28;20850;-76
2022/04/19 02:50:33;;;;;;;1.47;1.20;;;8.40;88.60;;;;;;5021644;28;20480;-76
2022/04/19 02:53:01;;;;;;;1.50;1.10;;;8.40;88.60;;;;;;5031523;28;20554;-76
2022/04/19 02:55:28;;;;;;;1.50;1.20;;;8.40;89.20;;;;;;5031088;28;20478;-76
2022/04/19 02:57:56;;;;;;;1.50;1.20;;;8.40;89.00;;;;;;5035284;28;20466;-76
2022/04/19 03:00:23;;;;;;;1.47;1.17;;;8.30;89.20;;;;;;5042451;28;20583;-76
2022/04/19 03:02:51;;;;;;;1.50;1.20;;;8.30;89.10;;;;;;5040440;28;20520;-77
2022/04/19 03:05:20;;;;;;;1.47;1.27;;;8.30;90.10;;;;;;5049870;28;20497;-76
2022/04/19 03:07:47;;;;;;;1.47;1.20;;;8.20;90.20;;;;;;5033206;28;20914;-76
2022/04/19 03:10:15;;;;;;;1.50;1.20;;;8.20;90.20;;;;;;5030382;28;20475;-76
2022/04/19 03:12:42;;;;;;;1.47;1.20;;;8.20;89.30;;;;;;5036535;28;20542;-77
2022/04/19 03:15:10;;;;;;;1.50;1.20;;;8.10;88.40;;;;;;5030884;28;20550;-76
2022/04/19 03:17:37;;;;;;;1.43;1.17;;;8.10;88.60;;;;;;5020298;28;20816;-77
2022/04/19 03:20:08;;;;;;;1.40;1.20;;;8.10;89.30;;;;;;5019286;28;20483;-77
2022/04/19 03:28:06;;;;;;;1.43;1.10;;;8.00;88.60;;;;;;5030198;28;20890;-76
2022/04/19 03:30:33;;;;;;;1.43;1.20;;;7.90;88.60;;;;;;5028207;28;20713;-77
2022/04/19 03:33:00;;;;;;;1.43;1.20;;;7.90;88.90;;;;;;5041478;28;20489;-76
2022/04/19 03:35:26;;;;;;;1.50;1.30;;;7.90;90.00;;;;;;5046439;28;20468;-76
2022/04/19 03:37:55;;;;;;;1.50;1.20;;;7.90;89.70;;;;;;5045847;28;20458;-76
2022/04/19 03:40:22;;;;;;;1.50;1.20;;;7.90;89.50;;;;;;5042340;28;20495;-76
2022/04/19 03:42:48;;;;;;;1.50;1.20;;;7.80;90.80;;;;;;5040014;28;20455;-76
2022/04/19 03:45:15;;;;;;;1.50;1.20;;;7.90;90.80;;;;;;5049762;28;20839;-77
2022/04/19 03:47:42;;;;;;;1.60;1.50;;;7.80;90.40;;;;;;5033735;28;20485;-76
2022/04/19 03:50:09;;;;;;;1.50;1.30;;;7.80;90.10;;;;;;5033360;28;20482;-78
2022/04/19 03:52:36;;;;;;;1.50;1.20;;;7.70;91.50;;;;;;5018465;28;20480;-77
2022/04/19 03:55:06;;;;;;;1.50;1.27;;;7.70;91.60;;;;;;5036264;28;20474;-76
2022/04/19 03:57:33;;;;;;;1.50;1.30;;;7.70;91.20;;;;;;5030506;28;20525;-76
2022/04/19 04:00:07;;;;;;;1.50;1.20;;;7.60;91.80;;;;;;5029828;28;20486;-77
2022/04/19 04:02:34;;;;;;;1.43;1.30;;;7.60;92.20;;;;;;5039987;28;20942;-76
2022/04/19 04:05:01;;;;;;;1.43;1.10;;;7.60;93.80;;;;;;5049722;28;20465;-76
2022/04/19 04:07:28;;;;;;;1.50;1.30;;;7.50;94.10;;;;;;5035177;28;20906;-77
2022/04/19 04:09:55;;;;;;;1.50;1.30;;;7.50;93.70;;;;;;5029234;28;20462;-76
2022/04/19 04:12:23;;;;;;;1.50;1.20;;;7.50;92.80;;;;;;5039852;28;20478;-77
2022/04/19 04:14:50;;;;;;;1.50;1.30;;;7.40;93.50;;;;;;5048292;28;20573;-76
2022/04/19 04:17:19;;;;;;;1.47;1.20;;;7.40;94.70;;;;;;5045593;28;20537;-75
2022/04/19 04:19:46;;;;;;;1.50;1.30;;;7.40;94.40;;;;;;5035792;28;20463;-77
2022/04/19 04:22:13;;;;;;;1.50;1.30;;;7.40;94.30;;;;;;5019314;28;20455;-76
2022/04/19 04:24:40;;;;;;;1.50;1.33;;;7.40;94.10;;;;;;5032726;28;20463;-76
2022/04/19 04:27:07;;;;;;;1.50;1.30;;;7.30;93.60;;;;;;5028519;28;20458;-77
2022/04/19 04:29:36;;;;;;;1.40;1.20;;;7.30;94.10;;;;;;5028575;28;20587;-76
2022/04/19 04:32:03;;;;;;;1.50;1.40;;;7.30;95.40;;;;;;5033092;28;20486;-76
2022/04/19 04:34:31;;;;;;;1.50;1.40;;;7.30;95.60;;;;;;5043657;28;20462;-76
2022/04/19 04:36:57;;;;;;;1.50;1.20;;;7.30;95.50;;;;;;5038298;28;20494;-75
2022/04/19 04:39:24;;;;;;;1.47;1.30;;;7.30;95.40;;;;;;5025249;28;20864;-75
2022/04/19 04:41:51;;;;;;;1.40;1.20;;;7.30;95.70;;;;;;5031082;28;20478;-75
2022/04/19 04:44:18;;;;;;;1.50;1.30;;;7.30;95.30;;;;;;5048410;28;20965;-75
2022/04/19 04:49:39;;;;;;;1.50;1.30;;;7.30;94.70;;;;;;5028319;28;20453;-76
2022/04/19 04:52:07;;;;;;;1.47;1.20;;;7.30;95.10;;;;;;5016106;28;20475;-75
2022/04/19 04:54:35;;;;;;;1.43;1.30;;;7.30;94.20;;;;;;5038422;28;20466;-74
2022/04/19 04:57:02;;;;;;;1.50;1.30;;;7.20;95.20;;;;;;5038254;28;20517;-75
2022/04/19 04:59:30;;;;;;;1.50;1.30;;;7.20;95.60;;;;;;5028897;28;20583;-75
2022/04/19 05:01:59;;;;;;;1.50;1.23;;;7.20;95.70;;;;;;5034051;28;20490;-76
2022/04/19 05:04:26;;;;;;;1.47;1.20;;;7.20;95.70;;;;;;5046941;28;20964;-76
2022/04/19 05:06:53;;;;;;;1.47;1.20;;;7.20;95.50;;;;;;5039783;28;20936;-74
2022/04/19 05:09:21;;;;;;;1.47;1.23;;;7.30;95.90;;;;;;5028179;28;20463;-75
2022/04/19 05:11:50;;;;;;;1.53;1.40;;;7.20;95.90;;;;;;5027980;28;20522;-75
2022/04/19 05:14:17;;;;;;;1.50;1.30;;;7.30;97.40;;;;;;5042458;28;21189;-75
2022/04/19 05:16:49;;;;;;;1.50;1.30;;;7.40;97.20;;;;;;5040050;28;20463;-75
2022/04/19 05:19:17;;;;;;;1.50;1.30;;;7.40;97.50;;;;;;5027768;28;20470;-75
2022/04/19 05:21:51;;;;;;;1.50;1.20;;;7.40;97.30;;;;;;5018156;28;20490;-75
2022/04/19 05:24:21;;;;;;;1.50;1.20;;;7.50;98.20;;;;;;5028832;28;20519;-75
2022/04/19 05:26:48;;;;;;;1.50;1.20;;;7.60;98.20;;;;;;5025251;28;20468;-75
2022/04/19 05:29:15;;;;;;;1.43;1.20;;;7.60;98.10;;;;;;5046989;28;20462;-74
2022/04/19 05:31:42;;;;;;;1.43;1.30;;;7.70;97.70;;;;;;5039063;28;20637;-74
2022/04/19 05:34:10;;;;;;;1.43;1.13;;;7.80;98.00;;;;;;5027769;28;20483;-74
2022/04/19 05:36:38;;;;;;;1.47;1.20;;;7.90;98.20;;;;;;5029408;28;20925;-75
2022/04/19 05:39:05;;;;;;;1.50;1.20;;;8.10;98.20;;;;;;5042666;28;20472;-75
2022/04/19 05:41:32;;;;;;;1.50;1.20;;;8.30;98.20;;;;;;5026192;28;20496;-75
2022/04/19 05:43:59;;;;;;;1.50;1.20;;;8.50;97.60;;;;;;5033462;28;20558;-75
2022/04/19 05:46:26;;;;;;;1.47;1.20;;;8.80;97.30;;;;;;5037321;28;20462;-75
2022/04/19 05:48:53;;;;;;;1.50;1.20;;;9.10;95.90;;;;;;5030111;28;20501;-75
2022/04/19 05:51:20;;;;;;;1.43;1.20;;;9.30;95.00;;;;;;5019149;28;20537;-75
2022/04/19 05:53:48;;;;;;;1.50;1.20;;;9.60;92.80;;;;;;5026895;28;20857;-75
2022/04/19 05:56:15;;;;;;;1.40;1.10;;;9.70;92.50;;;;;;5027005;28;20897;-76
2022/04/19 05:58:42;;;;;;;1.50;1.17;;;10.00;92.80;;;;;;5034095;28;20469;-75
2022/04/19 06:01:09;;;;;;;1.50;1.20;;;10.10;89.40;;;;;;5032917;28;21002;-76
2022/04/19 06:06:19;;;;;;;1.47;1.17;;;10.70;87.80;;;;;;5030168;28;20454;-75
2022/04/19 06:08:49;;;;;;;1.47;1.10;;;10.90;85.40;;;;;;5040728;28;20464;-75
2022/04/19 06:11:15;;;;;;;1.40;1.10;;;11.20;86.60;;;;;;5022151;28;20536;-75
2022/04/19 06:13:43;;;;;;;1.43;1.00;;;11.60;86.40;;;;;;5019006;28;20495;-75
2022/04/19 06:16:10;;;;;;;1.50;1.10;;;12.00;84.40;;;;;;5027376;28;20791;-75
2022/04/19 06:18:37;;;;;;;3.10;2.37;;;12.20;83.70;;;;;;5027433;28;20584;-75
2022/04/19 06:21:04;;;;;;;1.50;1.10;;;12.50;81.60;;;;;;5018189;28;20491;-76
2022/04/19 06:23:31;;;;;;;1.60;1.40;;;12.70;81.10;;;;;;5021278;28;20551;-75
2022/04/19 06:26:00;;;;;;;1.43;1.00;;;12.90;80.80;;;;;;5027025;28;20490;-76
2022/04/19 06:28:27;;;;;;;1.43;1.00;;;13.20;79.70;;;;;;5023038;28;20473;-76
2022/04/19 06:30:54;;;;;;;1.47;1.00;;;13.30;78.30;;;;;;5023270;28;20497;-76
2022/04/19 06:33:21;;;;;;;1.40;0.90;;;13.50;76.90;;;;;;5026677;28;20501;-76
2022/04/19 06:35:49;;;;;;;1.50;1.10;;;13.70;76.30;;;;;;5029432;28;20463;-75
2022/04/19 06:38:15;;;;;;;1.47;1.00;;;14.00;76.90;;;;;;5029848;28;21217;-76
2022/04/19 06:40:42;;;;;;;1.47;0.93;;;14.20;75.30;;;;;;5028052;28;20494;-75
2022/04/19 06:43:12;;;;;;;1.50;1.00;;;14.50;74.50;;;;;;5024842;28;20463;-76
2022/04/19 06:45:39;;;;;;;1.47;1.00;;;14.80;74.60;;;;;;5034218;28;20466;-75
2022/04/19 06:48:06;;;;;;;1.43;1.00;;;15.00;74.60;;;;;;5040681;28;20532;-76
2022/04/19 06:50:34;;;;;;;1.50;0.90;;;15.30;74.80;;;;;;5017737;28;20498;-75
2022/04/19 06:53:00;;;;;;;1.47;1.00;;;15.50;74.20;;;;;;5025998;28;20560;-76
2022/04/19 06:55:27;;;;;;;1.43;0.90;;;15.70;73.30;;;;;;5038556;28;20474;-75
2022/04/19 06:57:54;;;;;;;1.50;1.00;;;16.00;72.60;;;;;;5039419;28;20466;-76
2022/04/19 07:00:23;;;;;;;1.47;0.90;;;16.10;71.80;;;;;;5026324;28;20868;-76
2022/04/19 07:02:50;;;;;;;1.43;0.90;;;16.30;71.20;;;;;;5020671;28;20460;-75
2022/04/19 07:05:17;;;;;;;1.50;1.00;;;16.40;70.60;;;;;;5029033;28;21069;-75
2022/04/19 07:07:44;;;;;;;1.40;0.93;;;16.60;70.60;;;;;;5020088;28;20545;-75
2022/04/19 07:10:11;;;;;;;1.43;1.00;;;16.70;70.80;;;;;;5031452;28;20573;-76
2022/04/19 07:12:39;;;;;;;1.40;1.00;;;16.80;71.10;;;;;;5029240;28;20524;-75
2022/04/19 07:15:07;;;;;;;1.47;0.90;;;16.90;70.20;;;;;;5030826;28;20540;-75
2022/04/19 07:17:39;;;;;;;1.47;0.97;;;16.90;69.30;;;;;;5025116;28;20499;-74
2022/04/19 07:28:21;;;;;;;1.43;0.90;;;17.50;68.70;;;;;;5029260;28;20590;-75
2022/04/19 07:30:48;;;;;;;1.43;0.90;;;17.70;68.90;;;;;;5023158;28;20507;-75
2022/04/19 07:33:17;;;;;;;1.47;0.90;;;17.90;67.70;;;;;;5054204;22;20498;-78
2022/04/19 07:35:44;;;;;;;1.47;0.90;;;18.10;67.20;;;;;;5023275;28;20466;-77
2022/04/19 07:38:11;;;;;;;1.43;0.90;;;18.20;67.10;;;;;;5032941;28;20542;-77
2022/04/19 07:40:38;;;;;;;1.47;0.90;;;18.40;67.40;;;;;;5023586;28;20522;-77
2022/04/19 07:43:06;;;;;;;1.50;0.90;;;18.50;65.80;;;;;;5025023;28;20830;-77
2022/04/19 07:45:32;;;;;;;1.47;0.90;;;18.70;66.20;;;;;;5024269;28;20545;-77
2022/04/19 07:47:59;;;;;;;1.47;0.93;;;18.80;64.10;;;;;;5023606;28;20463;-77
2022/04/19 07:50:28;;;;;;;1.43;0.90;;;18.90;62.80;;;;;;5022747;28;20469;-78
2022/04/19 07:52:55;;;;;;;1.43;0.90;;;19.00;63.50;;;;;;5014723;28;20691;-78
2022/04/19 07:55:23;;;;;;;1.50;0.90;;;19.00;63.40;;;;;;5024193;28;20467;-78
2022/04/19 07:57:50;;;;;;;1.47;0.90;;;19.10;63.40;;;;;;5017147;28;20473;-78
2022/04/19 08:00:18;;;;;;;1.50;0.90;;;19.30;63.70;;;;;;5023000;28;20774;-78
2022/04/19 08:02:44;;;;;;;1.47;0.90;;;19.60;63.50;;;;;;5035100;28;20499;-78
2022/04/19 08:05:11;;;;;;;1.47;0.90;;;19.80;64.40;;;;;;5022237;28;20463;-78
2022/04/19 08:07:39;;;;;;;1.50;0.90;;;20.00;62.30;;;;;;5021344;28;20842;-78
2022/04/19 08:10:07;;;;;;;1.40;0.90;;;20.00;62.50;;;;;;5023319;28;20474;-78
2022/04/19 08:12:34;;;;;;;1.50;1.00;;;20.10;61.00;;;;;;5021661;28;20483;-78
2022/04/19 08:15:01;;;;;;;1.40;0.90;;;20.10;61.20;;;;;;5024556;28;20482;-77
2022/04/19 08:17:27;;;;;;;1.43;0.90;;;20.20;61.00;;;;;;5022904;28;20471;-77
2022/04/19 08:19:56;;;;;;;1.50;0.90;;;20.30;62.70;;;;;;5028046;28;20473;-78
2022/04/19 08:22:23;;;;;;;1.47;1.00;;;20.50;61.60;;;;;;5014218;28;20543;-78
2022/04/19 08:24:51;;;;;;;1.47;0.90;;;20.70;59.50;;;;;;5026864;28;20460;-78
2022/04/19 08:27:19;;;;;;;1.50;0.80;;;20.80;57.50;;;;;;5016988;28;20474;-77
2022/04/19 08:29:46;;;;;;;1.40;0.90;;;20.80;59.50;;;;;;5023624;28;20467;-78
2022/04/19 08:32:13;;;;;;;1.50;1.00;;;20.90;60.10;;;;;;5019426;28;20566;-77
2022/04/19 08:34:41;;;;;;;1.47;0.90;;;21.00;58.50;;;;;;5023591;28;20494;-78
2022/04/19 08:37:09;;;;;;;1.40;0.90;;;21.00;59.50;;;;;;5023434;28;20466;-77
2022/04/19 08:39:36;;;;;;;1.43;0.90;;;21.10;58.60;;;;;;5025390;28;20554;-78
2022/04/19 08:42:05;;;;;;;1.50;0.90;;;21.20;58.60;;;;;;5022803;28;20844;-77
2022/04/19 08:44:35;;;;;;;1.47;0.90;;;21.30;57.10;;;;;;5023961;28;20463;-78
2022/04/19 08:47:07;;;;;;;1.47;0.83;;;21.50;56.50;;;;;;5033062;28;20494;-77
2022/04/19 08:49:39;;;;;;;1.93;1.73;;;21.60;57.70;;;;;;5015074;28;20549;-78
2022/04/19 08:52:07;;;;;;;1.47;0.90;;;21.50;56.60;;;;;;5008224;28;20508;-77
2022/04/19 08:57:33;;;;;;;1.47;0.90;;;21.30;57.00;;;;;;5019608;28;20447;-77
2022/04/19 09:00:02;;;;;;;1.50;0.90;;;21.50;56.70;;;;;;5015477;28;20865;-78
2022/04/19 09:02:31;;;;;;;1.47;0.90;;;21.70;57.40;;;;;;5021718;28;20572;-77
2022/04/19 09:05:13;;;;;;;1.47;0.90;;;22.00;58.40;;;;;;5024748;28;20467;-80
2022/04/19 09:07:40;;;;;;;1.40;0.80;;;22.30;57.70;;;;;;5017855;28;20459;-77
2022/04/19 09:10:11;;;;;;;1.50;0.87;;;22.40;56.20;;;;;;5021605;28;20459;-78
2022/04/19 09:12:55;;;;;;;1.43;0.80;;;22.50;55.90;;;;;;5023254;28;20564;-77
2022/04/19 09:15:21;;;;;;;1.47;0.80;;;22.70;57.10;;;;;;5030973;28;20578;-77
2022/04/19 09:17:49;;;;;;;1.50;0.87;;;23.00;55.50;;;;;;5026917;28;20545;-77
2022/04/19 09:20:19;;;;;;;1.50;0.90;;;23.10;55.80;;;;;;5027119;28;20993;-79
2022/04/19 09:22:48;;;;;;;1.47;0.90;;;23.20;53.60;;;;;;5021221;28;20490;-78
2022/04/19 09:25:20;;;;;;;1.47;0.90;;;23.20;53.40;;;;;;5027078;28;20470;-78
2022/04/19 09:27:50;;;;;;;1.40;0.90;;;23.10;53.00;;;;;;5027165;28;20467;-77
2022/04/19 09:30:23;;;;;;;1.43;0.80;;;23.10;54.50;;;;;;5025383;28;20493;-77
2022/04/19 09:33:10;;;;;;;1.50;0.90;;;23.20;54.10;;;;;;5028904;28;21012;-77
2022/04/19 09:35:39;;;;;;;1.47;0.90;;;22.90;55.00;;;;;;5021918;28;20520;-77
2022/04/19 09:38:07;;;;;;;1.43;0.80;;;22.90;53.70;;;;;;5026843;28;20604;-78
2022/04/19 09:40:36;;;;;;;1.50;0.90;;;23.00;53.60;;;;;;5037204;28;20852;-77
2022/04/19 09:43:12;;;;;;;1.40;0.90;;;23.20;53.10;;;;;;5044985;28;20470;-77
2022/04/19 09:45:46;;;;;;;1.40;0.90;;;23.30;55.20;;;;;;5039945;28;20471;-77
2022/04/19 09:48:16;;;;;;;1.40;0.90;;;23.50;54.80;;;;;;5047251;28;20897;-77
2022/04/19 09:50:49;;;;;;;1.43;0.90;;;23.40;52.20;;;;;;5029422;28;20463;-77
2022/04/19 09:53:18;;;;;;;1.40;0.90;;;23.40;52.90;;;;;;5022755;28;20860;-77
2022/04/19 09:55:48;;;;;;;1.40;0.80;;;23.50;52.00;;;;;;5048513;28;20451;-77
2022/04/19 09:58:17;;;;;;;1.40;0.90;;;23.60;52.30;;;;;;5040991;28;20553;-77
2022/04/19 10:00:44;;;;;;;1.40;0.83;;;23.60;51.80;;;;;;5047329;28;20458;-76
2022/04/19 10:08:41;;;;;;;1.60;1.20;;;23.40;50.20;;;;;;5023883;28;20474;-77
2022/04/19 10:11:10;;;;;;;1.43;0.80;;;23.30;52.80;;;;;;5027856;28;21093;-78
2022/04/19 10:13:39;;;;;;;1.40;0.90;;;23.40;51.30;;;;;;5026193;28;20479;-77
2022/04/19 10:16:11;;;;;;;1.40;0.90;;;23.30;50.60;;;;;;5029459;28;20851;-78
2022/04/19 10:18:37;;;;;;;1.50;1.10;;;23.00;51.10;;;;;;5047751;28;20473;-77
2022/04/19 10:21:08;;;;;;;1.40;0.90;;;23.00;54.10;;;;;;5024680;28;20464;-79
2022/04/19 10:23:36;;;;;;;1.40;0.90;;;23.40;52.30;;;;;;5021366;28;20873;-77
2022/04/19 10:26:20;;;;;;;1.40;0.80;;;23.60;50.40;;;;;;5029730;28;20463;-77
2022/04/19 10:28:50;;;;;;;1.43;0.80;;;23.60;51.50;;;;;;5023180;28;20499;-78
2022/04/19 10:31:27;;;;;;;1.40;0.80;;;23.70;50.40;;;;;;5027604;28;20459;-78
2022/04/19 10:33:54;;;;;;;1.40;0.80;;;23.60;51.80;;;;;;5049613;28;20490;-78
2022/04/19 10:36:24;;;;;;;2.63;2.33;;;23.50;51.20;;;;;;5044798;28;20459;-77
2022/04/19 10:39:22;;;;;;;2.07;1.87;;;23.50;51.20;;;;;;5033037;28;20459;-78
2022/04/19 10:41:53;;;;;;;1.43;0.87;;;23.50;53.30;;;;;;5026719;28;20549;-77
2022/04/19 10:44:29;;;;;;;1.40;0.90;;;23.90;52.30;;;;;;5048407;28;20611;-78
2022/04/19 10:47:23;;;;;;;1.50;1.00;;;24.10;52.60;;;;;;5039108;28;20495;-78
2022/04/19 10:50:10;;;;;;;1.40;0.90;;;24.10;52.20;;;;;;5029373;28;20470;-78
2022/04/19 10:52:48;;;;;;;1.47;0.90;;;24.30;53.30;;;;;;5021011;28;20478;-78
2022/04/19 10:55:31;;;;;;;1.40;0.90;;;24.40;52.50;;;;;;5033132;28;20483;-78
2022/04/19 10:58:20;;;;;;;1.43;0.83;;;24.50;52.70;;;;;;5027795;28;20463;-78
2022/04/19 11:00:54;;;;;;;1.43;0.90;;;24.70;52.40;;;;;;5027270;28;20459;-77
2022/04/19 11:03:39;;;;;;;1.40;0.80;;;24.60;50.20;;;;;;5025011;28;20487;-76
2022/04/19 11:06:09;;;;;;;1.50;1.00;;;24.70;51.20;;;;;;5028205;28;20533;-77
2022/04/19 11:08:37;;;;;;;1.40;0.90;;;24.70;51.70;;;;;;5043341;28;20462;-77
2022/04/19 11:11:24;;;;;;;1.40;0.90;;;24.90;52.50;;;;;;5025126;28;20487;-77
2022/04/19 11:14:20;;;;;;;1.40;0.80;;;25.00;51.40;;;;;;5022571;28;20578;-77
2022/04/19 11:16:51;;;;;;;1.40;0.80;;;25.10;51.00;;;;;;5046566;28;20707;-77
2022/04/19 11:19:20;;;;;;;1.40;0.80;;;24.80;50.70;;;;;;5027243;28;20467;-77
2022/04/19 11:21:54;;;;;;;1.43;1.00;;;24.70;51.20;;;;;;5011224;28;20892;-78
2022/04/19 11:24:57;;;;;;;1.40;0.90;;;24.50;51.90;;;;;;5036437;28;20466;-77
2022/04/19 11:27:25;;;;;;;1.40;0.90;;;24.70;51.60;;;;;;5017619;28;20493;-76
2022/04/19 11:29:53;;;;;;;1.47;0.80;;;24.70;51.10;;;;;;5015912;28;20468;-77
2022/04/19 11:32:25;;;;;;;1.40;0.83;;;24.50;51.50;;;;;;5019022;28;20857;-77
2022/04/19 11:35:01;;;;;;;1.40;0.87;;;24.30;50.80;;;;;;5025716;28;20486;-77
2022/04/19 11:37:29;;;;;;;1.40;0.80;;;24.40;52.10;;;;;;5026841;28;20466;-79
2022/04/19 11:48:19;;;;;;;1.40;0.80;;;24.50;51.80;;;;;;5021439;28;20466;-77
2022/04/19 11:50:47;;;;;;;1.40;0.80;;;24.60;51.40;;;;;;5023268;28;20470;-78
2022/04/19 11:53:18;;;;;;;1.43;0.80;;;24.60;50.90;;;;;;5022542;28;20846;-78
2022/04/19 11:55:52;;;;;;;1.40;0.90;;;24.80;53.30;;;;;;5026476;28;20590;-77
2022/04/19 11:58:21;;;;;;;1.40;0.80;;;24.80;51.40;;;;;;5022070;28;20521;-78
2022/04/19 12:00:58;;;;;;;1.50;1.00;;;24.50;51.20;;;;;;5023456;28;20850;-77
2022/04/19 12:03:28;;;;;;;1.40;0.90;;;24.40;51.20;;;;;;5040899;28;20494;-79
2022/04/19 12:05:55;;;;;;;1.40;0.90;;;24.50;54.30;;;;;;5044938;28;20488;-77
2022/04/19 12:08:37;;;;;;;1.60;1.23;;;24.60;52.40;;;;;;5026142;28;20467;-77
2022/04/19 12:11:06;;;;;;;1.50;1.00;;;24.60;52.20;;;;;;5024377;28;20474;-78
2022/04/19 12:13:33;;;;;;;1.40;0.90;;;24.50;52.50;;;;;;5020324;28;20487;-78
2022/04/19 12:16:03;;;;;;;1.40;0.80;;;24.40;52.20;;;;;;5031141;28;20487;-78
2022/04/19 12:18:33;;;;;;;1.47;0.97;;;24.30;51.50;;;;;;5046578;28;20465;-77
2022/04/19 12:21:00;;;;;;;1.40;0.90;;;24.10;52.60;;;;;;5013400;28;20455;-78
2022/04/19 12:23:27;;;;;;;1.63;1.30;;;24.30;53.50;;;;;;5024778;28;20482;-78
2022/04/19 12:26:01;;;;;;;1.77;1.57;;;24.20;52.90;;;;;;5018604;28;20459;-77
2022/04/19 12:28:42;;;;;;;1.40;0.90;;;24.30;53.00;;;;;;5021688;28;20478;-78
2022/04/19 12:31:09;;;;;;;1.40;0.90;;;24.20;52.60;;;;;;5020968;28;20605;-78
2022/04/19 12:33:54;;;;;;;1.40;0.90;;;24.20;53.20;;;;;;5042123;28;20501;-78
2022/04/19 12:36:25;;;;;;;1.40;0.93;;;24.00;52.50;;;;;;5040843;28;20487;-78
2022/04/19 12:39:00;;;;;;;2.13;1.93;;;23.90;52.20;;;;;;5026541;28;20479;-78
2022/04/19 12:41:34;;;;;;;1.40;0.90;;;23.80;54.20;;;;;;5032639;28;20462;-80
2022/04/19 12:44:02;;;;;;;1.50;0.90;;;23.90;53.70;;;;;;5023865;28;20486;-78
2022/04/19 12:46:30;;;;;;;1.43;1.03;;;24.10;53.40;;;;;;5040267;28;20886;-78
2022/04/19 12:48:58;;;;;;;1.40;0.90;;;24.20;53.20;;;;;;5040045;28;20549;-78
2022/04/19 12:51:26;;;;;;;1.40;0.90;;;24.20;52.10;;;;;;5026940;28;20459;-80
2022/04/19 12:54:05;;;;;;;1.40;0.80;;;24.10;54.10;;;;;;5021221;28;20503;-77
2022/04/19 12:56:32;;;;;;;1.40;0.83;;;24.10;52.80;;;;;;5031198;28;20842;-77
2022/04/19 12:58:59;;;;;;;1.40;0.90;;;24.20;52.20;;;;;;5049436;28;20462;-78
2022/04/19 13:01:26;;;;;;;1.40;0.80;;;24.30;52.40;;;;;;5041148;28;20474;-78
2022/04/19 13:03:53;;;;;;;2.73;1.63;;;24.20;52.30;;;;;;5028999;28;20911;-77
2022/04/19 13:14:31;;;;;;;1.40;1.00;;;24.30;52.90;;;;;;5039639;28;20750;-77
2022/04/19 13:16:58;;;;;;;1.40;0.90;;;24.20;51.40;;;;;;5048361;28;20476;-77
2022/04/19 13:19:25;;;;;;;1.40;0.80;;;24.00;51.50;;;;;;5030960;28;20459;-79
2022/04/19 13:21:53;;;;;;;1.40;0.90;;;24.00;52.40;;;;;;5005824;28;20962;-78
2022/04/19 13:24:19;;;;;;;3.50;1.30;;;24.00;52.50;;;;;;5028731;28;20968;-79
2022/04/19 13:26:46;;;;;;;1.40;0.90;;;23.90;52.30;;;;;;5030728;28;20462;-78
2022/04/19 13:29:13;;;;;;;1.40;1.00;;;23.60;51.00;;;;;;5035021;28;20769;-80
2022/04/19 13:31:40;;;;;;;1.40;0.90;;;23.30;52.00;;;;;;5030148;28;20545;-79
2022/04/19 13:34:07;;;;;;;1.40;0.90;;;23.50;52.10;;;;;;5052624;22;20441;-76
2022/04/19 13:36:34;;;;;;;1.47;1.00;;;23.70;52.40;;;;;;5034241;28;21053;-75
2022/04/19 13:39:02;;;;;;;1.40;0.87;;;23.70;53.40;;;;;;5031716;28;20471;-75
2022/04/19 13:41:29;;;;;;;1.50;1.00;;;23.90;52.80;;;;;;5037721;28;20492;-75
2022/04/19 13:43:55;;;;;;;1.40;0.90;;;24.00;51.30;;;;;;5030657;28;20458;-76
2022/04/19 13:46:22;;;;;;;1.40;0.87;;;23.90;51.50;;;;;;5030696;28;20465;-76